sensor_id;sensor_type;location;lat;lon;timestamp;P1;durP1;ratioP1;P2;durP2;ratioP2
38123;SDS011;23934;47.998;9.832;2023-03-01T00:01:15;29.02;;;9.48;;
38123;SDS011;23934;47.998;9.832;2023-03-01T00:03:42;27.27;;;6.53;;
38123;SDS011;23934;47.998;9.832;2023-03-01T00:06:08;24.52;;;7.82;;
38123;SDS011;23934;47.998;9.832;2023-03-01T00:08:34;36.08;;;10.07;;
38123;SDS011;23934;47.998;9.832;2023-03-01T00:11:04;32.53;;;7.68;;
38123;SDS011;23934;47.998;9.832;2023-03-01T00:13:31;36.10;;;7.63;;
38123;SDS011;23934;47.998;9.832;2023-03-01T00:15:57;36.83;;;9.82;;
38123;SDS011;23934;47.998;9.832;2023-03-01T00:18:23;23.85;;;7.55;;
38123;SDS011;23934;47.998;9.832;2023-03-01T00:20:50;29.98;;;9.10;;
38123;SDS011;23934;47.998;9.832;2023-03-01T00:23:16;21.67;;;8.80;;
38123;SDS011;23934;47.998;9.832;2023-03-01T00:25:42;35.45;;;9.07;;
38123;SDS011;23934;47.998;9.832;2023-03-01T00:28:08;33.28;;;9.40;;
38123;SDS011;23934;47.998;9.832;2023-03-01T00:30:34;23.90;;;7.93;;
38123;SDS011;23934;47.998;9.832;2023-03-01T00:33:00;31.38;;;8.63;;
38123;SDS011;23934;47.998;9.832;2023-03-01T00:35:26;27.77;;;8.57;;
38123;SDS011;23934;47.998;9.832;2023-03-01T00:37:52;28.92;;;8.82;;
38123;SDS011;23934;47.998;9.832;2023-03-01T00:40:29;33.67;;;10.10;;
38123;SDS011;23934;47.998;9.832;2023-03-01T00:42:55;31.65;;;9.48;;
38123;SDS011;23934;47.998;9.832;2023-03-01T00:45:21;19.65;;;6.13;;
38123;SDS011;23934;47.998;9.832;2023-03-01T00:47:48;27.63;;;8.85;;
38123;SDS011;23934;47.998;9.832;2023-03-01T00:50:13;26.50;;;8.50;;
38123;SDS011;23934;47.998;9.832;2023-03-01T00:52:40;22.73;;;8.18;;
38123;SDS011;23934;47.998;9.832;2023-03-01T00:55:06;30.08;;;9.20;;
38123;SDS011;23934;47.998;9.832;2023-03-01T00:57:32;24.52;;;8.50;;
38123;SDS011;23934;47.998;9.832;2023-03-01T00:59:58;18.00;;;8.13;;
38123;SDS011;23934;47.998;9.832;2023-03-01T01:02:24;22.73;;;8.82;;
38123;SDS011;23934;47.998;9.832;2023-03-01T01:04:50;25.88;;;9.80;;
38123;SDS011;23934;47.998;9.832;2023-03-01T01:07:17;19.85;;;7.50;;
38123;SDS011;23934;47.998;9.832;2023-03-01T01:09:45;29.98;;;9.30;;
38123;SDS011;23934;47.998;9.832;2023-03-01T01:12:11;20.42;;;7.90;;
38123;SDS011;23934;47.998;9.832;2023-03-01T01:14:37;31.08;;;7.18;;
38123;SDS011;23934;47.998;9.832;2023-03-01T01:17:03;25.10;;;7.60;;
38123;SDS011;23934;47.998;9.832;2023-03-01T01:19:29;31.00;;;9.35;;
38123;SDS011;23934;47.998;9.832;2023-03-01T01:21:55;31.13;;;9.55;;
38123;SDS011;23934;47.998;9.832;2023-03-01T01:24:21;30.10;;;8.82;;
38123;SDS011;23934;47.998;9.832;2023-03-01T01:26:47;24.73;;;9.15;;
38123;SDS011;23934;47.998;9.832;2023-03-01T01:29:13;23.25;;;8.48;;
38123;SDS011;23934;47.998;9.832;2023-03-01T01:31:40;29.00;;;8.30;;
38123;SDS011;23934;47.998;9.832;2023-03-01T01:34:07;23.65;;;8.60;;
38123;SDS011;23934;47.998;9.832;2023-03-01T01:36:33;15.13;;;6.57;;
38123;SDS011;23934;47.998;9.832;2023-03-01T01:38:59;41.67;;;10.02;;
38123;SDS011;23934;47.998;9.832;2023-03-01T01:41:26;11.18;;;5.22;;
38123;SDS011;23934;47.998;9.832;2023-03-01T01:46:41;22.50;;;7.57;;
38123;SDS011;23934;47.998;9.832;2023-03-01T01:51:41;22.05;;;7.72;;
38123;SDS011;23934;47.998;9.832;2023-03-01T01:54:10;27.48;;;9.45;;
38123;SDS011;23934;47.998;9.832;2023-03-01T01:56:38;25.25;;;7.57;;
38123;SDS011;23934;47.998;9.832;2023-03-01T01:59:04;20.00;;;8.05;;
38123;SDS011;23934;47.998;9.832;2023-03-01T02:01:30;30.00;;;9.60;;
38123;SDS011;23934;47.998;9.832;2023-03-01T02:03:56;19.60;;;8.18;;
38123;SDS011;23934;47.998;9.832;2023-03-01T02:06:27;22.65;;;7.90;;
38123;SDS011;23934;47.998;9.832;2023-03-01T02:08:55;21.52;;;7.15;;
38123;SDS011;23934;47.998;9.832;2023-03-01T02:11:23;30.58;;;8.48;;
38123;SDS011;23934;47.998;9.832;2023-03-01T02:13:49;24.08;;;8.02;;
38123;SDS011;23934;47.998;9.832;2023-03-01T02:16:15;24.50;;;7.53;;
38123;SDS011;23934;47.998;9.832;2023-03-01T02:18:41;22.98;;;8.32;;
38123;SDS011;23934;47.998;9.832;2023-03-01T02:21:28;22.02;;;9.77;;
38123;SDS011;23934;47.998;9.832;2023-03-01T02:23:55;31.50;;;8.25;;
38123;SDS011;23934;47.998;9.832;2023-03-01T02:26:40;23.25;;;8.45;;
38123;SDS011;23934;47.998;9.832;2023-03-01T02:29:07;26.63;;;7.30;;
38123;SDS011;23934;47.998;9.832;2023-03-01T02:31:34;25.58;;;8.60;;
38123;SDS011;23934;47.998;9.832;2023-03-01T02:34:11;28.60;;;8.15;;
38123;SDS011;23934;47.998;9.832;2023-03-01T02:36:39;23.48;;;9.32;;
38123;SDS011;23934;47.998;9.832;2023-03-01T02:39:07;29.00;;;8.00;;
38123;SDS011;23934;47.998;9.832;2023-03-01T02:41:39;26.58;;;10.23;;
38123;SDS011;23934;47.998;9.832;2023-03-01T02:44:06;19.75;;;7.00;;
38123;SDS011;23934;47.998;9.832;2023-03-01T02:46:33;26.95;;;8.52;;
38123;SDS011;23934;47.998;9.832;2023-03-01T02:48:59;29.73;;;9.55;;
38123;SDS011;23934;47.998;9.832;2023-03-01T02:54:18;30.08;;;9.48;;
38123;SDS011;23934;47.998;9.832;2023-03-01T02:56:45;30.52;;;8.35;;
38123;SDS011;23934;47.998;9.832;2023-03-01T02:59:15;28.77;;;9.50;;
38123;SDS011;23934;47.998;9.832;2023-03-01T03:01:42;27.67;;;7.50;;
38123;SDS011;23934;47.998;9.832;2023-03-01T03:04:09;17.60;;;7.25;;
38123;SDS011;23934;47.998;9.832;2023-03-01T03:06:35;32.05;;;9.75;;
38123;SDS011;23934;47.998;9.832;2023-03-01T03:09:02;18.88;;;7.03;;
38123;SDS011;23934;47.998;9.832;2023-03-01T03:11:28;22.63;;;7.50;;
38123;SDS011;23934;47.998;9.832;2023-03-01T03:13:55;36.75;;;10.70;;
38123;SDS011;23934;47.998;9.832;2023-03-01T03:16:22;33.45;;;9.60;;
38123;SDS011;23934;47.998;9.832;2023-03-01T03:18:48;20.65;;;7.18;;
38123;SDS011;23934;47.998;9.832;2023-03-01T03:21:14;24.88;;;8.25;;
38123;SDS011;23934;47.998;9.832;2023-03-01T03:23:41;19.70;;;6.13;;
38123;SDS011;23934;47.998;9.832;2023-03-01T03:26:07;30.83;;;8.90;;
38123;SDS011;23934;47.998;9.832;2023-03-01T03:28:33;35.33;;;10.13;;
38123;SDS011;23934;47.998;9.832;2023-03-01T03:30:59;27.65;;;7.53;;
38123;SDS011;23934;47.998;9.832;2023-03-01T03:33:29;34.10;;;9.05;;
38123;SDS011;23934;47.998;9.832;2023-03-01T03:35:55;27.08;;;8.55;;
38123;SDS011;23934;47.998;9.832;2023-03-01T03:38:22;26.85;;;8.52;;
38123;SDS011;23934;47.998;9.832;2023-03-01T03:40:49;21.42;;;7.45;;
38123;SDS011;23934;47.998;9.832;2023-03-01T03:43:16;23.77;;;9.05;;
38123;SDS011;23934;47.998;9.832;2023-03-01T03:45:46;22.63;;;6.97;;
38123;SDS011;23934;47.998;9.832;2023-03-01T03:48:13;31.33;;;9.70;;
38123;SDS011;23934;47.998;9.832;2023-03-01T03:50:39;21.58;;;7.13;;
38123;SDS011;23934;47.998;9.832;2023-03-01T03:53:06;40.55;;;8.75;;
38123;SDS011;23934;47.998;9.832;2023-03-01T03:55:32;24.35;;;7.70;;
38123;SDS011;23934;47.998;9.832;2023-03-01T03:57:59;27.38;;;8.75;;
38123;SDS011;23934;47.998;9.832;2023-03-01T04:00:31;26.85;;;9.40;;
38123;SDS011;23934;47.998;9.832;2023-03-01T04:02:57;24.95;;;7.90;;
38123;SDS011;23934;47.998;9.832;2023-03-01T04:05:24;30.35;;;10.32;;
38123;SDS011;23934;47.998;9.832;2023-03-01T04:07:50;33.30;;;9.85;;
38123;SDS011;23934;47.998;9.832;2023-03-01T04:10:26;25.80;;;7.55;;
38123;SDS011;23934;47.998;9.832;2023-03-01T04:12:52;29.10;;;9.45;;
38123;SDS011;23934;47.998;9.832;2023-03-01T04:15:18;18.83;;;7.32;;
38123;SDS011;23934;47.998;9.832;2023-03-01T04:17:45;30.42;;;10.45;;
38123;SDS011;23934;47.998;9.832;2023-03-01T04:20:15;32.35;;;10.43;;
38123;SDS011;23934;47.998;9.832;2023-03-01T04:22:51;23.23;;;8.07;;
38123;SDS011;23934;47.998;9.832;2023-03-01T04:25:18;31.98;;;9.82;;
38123;SDS011;23934;47.998;9.832;2023-03-01T04:27:44;30.85;;;9.10;;
38123;SDS011;23934;47.998;9.832;2023-03-01T04:30:10;27.45;;;9.43;;
38123;SDS011;23934;47.998;9.832;2023-03-01T04:32:36;22.50;;;7.32;;
38123;SDS011;23934;47.998;9.832;2023-03-01T04:35:02;31.77;;;9.48;;
38123;SDS011;23934;47.998;9.832;2023-03-01T04:37:28;31.55;;;9.88;;
38123;SDS011;23934;47.998;9.832;2023-03-01T04:39:54;25.10;;;9.35;;
38123;SDS011;23934;47.998;9.832;2023-03-01T04:42:20;25.48;;;9.13;;
38123;SDS011;23934;47.998;9.832;2023-03-01T04:44:46;19.95;;;5.93;;
38123;SDS011;23934;47.998;9.832;2023-03-01T04:47:12;23.02;;;7.03;;
38123;SDS011;23934;47.998;9.832;2023-03-01T04:49:38;26.30;;;10.95;;
38123;SDS011;23934;47.998;9.832;2023-03-01T04:52:04;26.73;;;8.20;;
38123;SDS011;23934;47.998;9.832;2023-03-01T04:54:32;16.25;;;5.82;;
38123;SDS011;23934;47.998;9.832;2023-03-01T04:56:58;33.92;;;10.55;;
38123;SDS011;23934;47.998;9.832;2023-03-01T04:59:24;30.83;;;9.65;;
38123;SDS011;23934;47.998;9.832;2023-03-01T05:01:51;28.30;;;8.05;;
38123;SDS011;23934;47.998;9.832;2023-03-01T05:04:20;23.27;;;8.07;;
38123;SDS011;23934;47.998;9.832;2023-03-01T05:06:46;28.27;;;9.35;;
38123;SDS011;23934;47.998;9.832;2023-03-01T05:09:12;23.75;;;8.32;;
38123;SDS011;23934;47.998;9.832;2023-03-01T05:11:38;16.60;;;6.00;;
38123;SDS011;23934;47.998;9.832;2023-03-01T05:14:04;30.17;;;9.25;;
38123;SDS011;23934;47.998;9.832;2023-03-01T05:16:31;27.13;;;8.98;;
38123;SDS011;23934;47.998;9.832;2023-03-01T05:18:57;23.58;;;7.65;;
38123;SDS011;23934;47.998;9.832;2023-03-01T05:21:23;20.55;;;7.50;;
38123;SDS011;23934;47.998;9.832;2023-03-01T05:23:49;27.20;;;8.45;;
38123;SDS011;23934;47.998;9.832;2023-03-01T05:26:16;27.80;;;11.10;;
38123;SDS011;23934;47.998;9.832;2023-03-01T05:28:42;24.63;;;8.23;;
38123;SDS011;23934;47.998;9.832;2023-03-01T05:31:09;24.63;;;8.50;;
38123;SDS011;23934;47.998;9.832;2023-03-01T05:33:35;15.93;;;6.80;;
38123;SDS011;23934;47.998;9.832;2023-03-01T05:36:02;34.40;;;10.15;;
38123;SDS011;23934;47.998;9.832;2023-03-01T05:38:28;27.98;;;9.10;;
38123;SDS011;23934;47.998;9.832;2023-03-01T05:40:54;30.65;;;9.38;;
38123;SDS011;23934;47.998;9.832;2023-03-01T05:43:20;34.58;;;9.82;;
38123;SDS011;23934;47.998;9.832;2023-03-01T05:45:46;23.30;;;8.10;;
38123;SDS011;23934;47.998;9.832;2023-03-01T05:48:13;31.95;;;10.43;;
38123;SDS011;23934;47.998;9.832;2023-03-01T05:50:42;31.00;;;9.38;;
38123;SDS011;23934;47.998;9.832;2023-03-01T05:53:13;31.20;;;9.27;;
38123;SDS011;23934;47.998;9.832;2023-03-01T05:55:39;20.63;;;7.95;;
38123;SDS011;23934;47.998;9.832;2023-03-01T05:58:10;28.00;;;11.25;;
38123;SDS011;23934;47.998;9.832;2023-03-01T06:00:36;26.50;;;9.27;;
38123;SDS011;23934;47.998;9.832;2023-03-01T06:03:02;25.63;;;8.20;;
38123;SDS011;23934;47.998;9.832;2023-03-01T06:05:29;21.80;;;7.95;;
38123;SDS011;23934;47.998;9.832;2023-03-01T06:07:55;31.40;;;9.85;;
38123;SDS011;23934;47.998;9.832;2023-03-01T06:10:23;26.25;;;8.00;;
38123;SDS011;23934;47.998;9.832;2023-03-01T06:12:49;28.98;;;9.93;;
38123;SDS011;23934;47.998;9.832;2023-03-01T06:15:16;25.27;;;8.43;;
38123;SDS011;23934;47.998;9.832;2023-03-01T06:17:43;23.63;;;8.75;;
38123;SDS011;23934;47.998;9.832;2023-03-01T06:20:16;28.35;;;8.80;;
38123;SDS011;23934;47.998;9.832;2023-03-01T06:22:43;25.00;;;8.25;;
38123;SDS011;23934;47.998;9.832;2023-03-01T06:25:13;20.45;;;8.55;;
38123;SDS011;23934;47.998;9.832;2023-03-01T06:27:40;31.27;;;10.13;;
38123;SDS011;23934;47.998;9.832;2023-03-01T06:30:07;24.38;;;6.97;;
38123;SDS011;23934;47.998;9.832;2023-03-01T06:32:34;23.50;;;9.70;;
38123;SDS011;23934;47.998;9.832;2023-03-01T06:35:00;33.05;;;9.18;;
38123;SDS011;23934;47.998;9.832;2023-03-01T06:37:26;26.10;;;7.72;;
38123;SDS011;23934;47.998;9.832;2023-03-01T06:39:52;22.42;;;7.60;;
38123;SDS011;23934;47.998;9.832;2023-03-01T06:42:18;29.80;;;9.20;;
38123;SDS011;23934;47.998;9.832;2023-03-01T06:44:44;30.63;;;10.13;;
38123;SDS011;23934;47.998;9.832;2023-03-01T06:47:10;17.63;;;5.22;;
38123;SDS011;23934;47.998;9.832;2023-03-01T06:49:36;37.60;;;8.95;;
38123;SDS011;23934;47.998;9.832;2023-03-01T06:52:02;19.80;;;8.48;;
38123;SDS011;23934;47.998;9.832;2023-03-01T06:54:28;27.95;;;9.90;;
38123;SDS011;23934;47.998;9.832;2023-03-01T06:56:54;25.02;;;8.15;;
38123;SDS011;23934;47.998;9.832;2023-03-01T06:59:20;19.80;;;7.80;;
38123;SDS011;23934;47.998;9.832;2023-03-01T07:01:46;24.63;;;9.52;;
38123;SDS011;23934;47.998;9.832;2023-03-01T07:04:12;35.38;;;11.15;;
38123;SDS011;23934;47.998;9.832;2023-03-01T07:06:38;24.05;;;7.45;;
38123;SDS011;23934;47.998;9.832;2023-03-01T07:09:04;32.88;;;10.25;;
38123;SDS011;23934;47.998;9.832;2023-03-01T07:11:30;23.17;;;7.63;;
38123;SDS011;23934;47.998;9.832;2023-03-01T07:13:56;26.85;;;8.85;;
38123;SDS011;23934;47.998;9.832;2023-03-01T07:16:23;18.77;;;7.78;;
38123;SDS011;23934;47.998;9.832;2023-03-01T07:18:49;28.52;;;9.40;;
38123;SDS011;23934;47.998;9.832;2023-03-01T07:21:15;17.58;;;5.57;;
38123;SDS011;23934;47.998;9.832;2023-03-01T07:23:41;30.27;;;8.50;;
38123;SDS011;23934;47.998;9.832;2023-03-01T07:26:07;15.10;;;6.13;;
38123;SDS011;23934;47.998;9.832;2023-03-01T07:28:33;19.17;;;7.78;;
38123;SDS011;23934;47.998;9.832;2023-03-01T07:31:04;30.25;;;8.80;;
38123;SDS011;23934;47.998;9.832;2023-03-01T07:33:31;20.30;;;7.55;;
38123;SDS011;23934;47.998;9.832;2023-03-01T07:35:58;18.08;;;7.03;;
38123;SDS011;23934;47.998;9.832;2023-03-01T07:38:24;19.15;;;6.95;;
38123;SDS011;23934;47.998;9.832;2023-03-01T07:40:50;27.65;;;8.77;;
38123;SDS011;23934;47.998;9.832;2023-03-01T07:43:15;23.08;;;7.75;;
38123;SDS011;23934;47.998;9.832;2023-03-01T07:45:41;28.85;;;10.73;;
38123;SDS011;23934;47.998;9.832;2023-03-01T07:48:07;32.42;;;9.57;;
38123;SDS011;23934;47.998;9.832;2023-03-01T07:50:33;33.17;;;9.60;;
38123;SDS011;23934;47.998;9.832;2023-03-01T07:52:59;21.30;;;8.23;;
38123;SDS011;23934;47.998;9.832;2023-03-01T07:55:25;25.58;;;8.88;;
38123;SDS011;23934;47.998;9.832;2023-03-01T07:57:51;18.48;;;7.15;;
38123;SDS011;23934;47.998;9.832;2023-03-01T08:00:17;16.88;;;5.53;;
38123;SDS011;23934;47.998;9.832;2023-03-01T08:02:43;26.73;;;8.50;;
38123;SDS011;23934;47.998;9.832;2023-03-01T08:05:10;19.58;;;7.43;;
38123;SDS011;23934;47.998;9.832;2023-03-01T08:07:36;27.10;;;9.05;;
38123;SDS011;23934;47.998;9.832;2023-03-01T08:10:02;29.70;;;11.77;;
38123;SDS011;23934;47.998;9.832;2023-03-01T08:12:28;20.48;;;7.35;;
38123;SDS011;23934;47.998;9.832;2023-03-01T08:14:54;24.65;;;7.70;;
38123;SDS011;23934;47.998;9.832;2023-03-01T08:17:21;28.77;;;9.00;;
38123;SDS011;23934;47.998;9.832;2023-03-01T08:19:47;32.75;;;9.43;;
38123;SDS011;23934;47.998;9.832;2023-03-01T08:22:13;26.63;;;8.32;;
38123;SDS011;23934;47.998;9.832;2023-03-01T08:24:39;30.35;;;9.02;;
38123;SDS011;23934;47.998;9.832;2023-03-01T08:27:05;30.67;;;9.30;;
38123;SDS011;23934;47.998;9.832;2023-03-01T08:29:31;24.35;;;8.98;;
38123;SDS011;23934;47.998;9.832;2023-03-01T08:31:57;28.52;;;8.95;;
38123;SDS011;23934;47.998;9.832;2023-03-01T08:34:23;22.48;;;7.38;;
38123;SDS011;23934;47.998;9.832;2023-03-01T08:36:49;24.00;;;8.43;;
38123;SDS011;23934;47.998;9.832;2023-03-01T08:39:17;15.38;;;5.57;;
38123;SDS011;23934;47.998;9.832;2023-03-01T08:41:44;21.50;;;9.32;;
38123;SDS011;23934;47.998;9.832;2023-03-01T08:44:10;33.40;;;9.85;;
38123;SDS011;23934;47.998;9.832;2023-03-01T08:46:38;30.13;;;9.73;;
38123;SDS011;23934;47.998;9.832;2023-03-01T08:49:05;32.05;;;7.97;;
38123;SDS011;23934;47.998;9.832;2023-03-01T08:51:32;26.40;;;5.32;;
38123;SDS011;23934;47.998;9.832;2023-03-01T08:54:01;39.33;;;9.68;;
38123;SDS011;23934;47.998;9.832;2023-03-01T08:56:27;40.95;;;11.57;;
38123;SDS011;23934;47.998;9.832;2023-03-01T08:58:53;21.10;;;7.05;;
38123;SDS011;23934;47.998;9.832;2023-03-01T09:01:19;29.75;;;10.43;;
38123;SDS011;23934;47.998;9.832;2023-03-01T09:03:45;26.30;;;8.02;;
38123;SDS011;23934;47.998;9.832;2023-03-01T09:06:12;21.60;;;8.23;;
38123;SDS011;23934;47.998;9.832;2023-03-01T09:08:39;16.77;;;5.72;;
38123;SDS011;23934;47.998;9.832;2023-03-01T09:11:06;24.45;;;7.13;;
38123;SDS011;23934;47.998;9.832;2023-03-01T09:13:32;32.53;;;10.45;;
38123;SDS011;23934;47.998;9.832;2023-03-01T09:16:00;22.90;;;9.68;;
38123;SDS011;23934;47.998;9.832;2023-03-01T09:18:26;24.25;;;9.15;;
38123;SDS011;23934;47.998;9.832;2023-03-01T09:20:52;30.88;;;10.23;;
38123;SDS011;23934;47.998;9.832;2023-03-01T09:23:21;41.88;;;10.88;;
38123;SDS011;23934;47.998;9.832;2023-03-01T09:25:47;32.55;;;10.13;;
38123;SDS011;23934;47.998;9.832;2023-03-01T09:28:13;21.58;;;6.82;;
38123;SDS011;23934;47.998;9.832;2023-03-01T09:30:39;20.58;;;8.57;;
38123;SDS011;23934;47.998;9.832;2023-03-01T09:33:05;27.60;;;7.25;;
38123;SDS011;23934;47.998;9.832;2023-03-01T09:35:31;27.23;;;8.65;;
38123;SDS011;23934;47.998;9.832;2023-03-01T09:37:57;21.55;;;7.78;;
38123;SDS011;23934;47.998;9.832;2023-03-01T09:40:23;26.98;;;9.57;;
38123;SDS011;23934;47.998;9.832;2023-03-01T09:45:50;30.58;;;10.30;;
38123;SDS011;23934;47.998;9.832;2023-03-01T09:48:14;32.53;;;10.30;;
38123;SDS011;23934;47.998;9.832;2023-03-01T09:50:41;33.35;;;9.68;;
38123;SDS011;23934;47.998;9.832;2023-03-01T09:53:20;29.35;;;8.93;;
38123;SDS011;23934;47.998;9.832;2023-03-01T10:00:50;27.67;;;8.32;;
38123;SDS011;23934;47.998;9.832;2023-03-01T10:03:26;32.10;;;9.23;;
38123;SDS011;23934;47.998;9.832;2023-03-01T10:05:59;18.73;;;7.18;;
38123;SDS011;23934;47.998;9.832;2023-03-01T10:08:34;26.90;;;8.20;;
38123;SDS011;23934;47.998;9.832;2023-03-01T10:11:01;39.97;;;9.75;;
38123;SDS011;23934;47.998;9.832;2023-03-01T10:16:11;32.58;;;10.13;;
38123;SDS011;23934;47.998;9.832;2023-03-01T10:18:39;21.05;;;7.95;;
38123;SDS011;23934;47.998;9.832;2023-03-01T10:21:11;27.25;;;9.32;;
38123;SDS011;23934;47.998;9.832;2023-03-01T10:23:39;27.20;;;8.05;;
38123;SDS011;23934;47.998;9.832;2023-03-01T10:26:30;23.58;;;7.13;;
38123;SDS011;23934;47.998;9.832;2023-03-01T10:29:05;25.52;;;8.52;;
38123;SDS011;23934;47.998;9.832;2023-03-01T10:31:39;36.00;;;7.03;;
38123;SDS011;23934;47.998;9.832;2023-03-01T10:34:09;26.88;;;7.53;;
38123;SDS011;23934;47.998;9.832;2023-03-01T10:36:36;19.98;;;7.13;;
38123;SDS011;23934;47.998;9.832;2023-03-01T10:39:05;33.25;;;10.52;;
38123;SDS011;23934;47.998;9.832;2023-03-01T10:41:37;32.67;;;9.30;;
38123;SDS011;23934;47.998;9.832;2023-03-01T10:44:10;23.73;;;9.50;;
38123;SDS011;23934;47.998;9.832;2023-03-01T10:46:59;20.52;;;6.88;;
38123;SDS011;23934;47.998;9.832;2023-03-01T10:49:26;27.70;;;9.40;;
38123;SDS011;23934;47.998;9.832;2023-03-01T10:51:52;31.10;;;9.65;;
38123;SDS011;23934;47.998;9.832;2023-03-01T10:56:49;31.13;;;10.20;;
38123;SDS011;23934;47.998;9.832;2023-03-01T10:59:51;24.10;;;7.75;;
38123;SDS011;23934;47.998;9.832;2023-03-01T11:04:39;34.28;;;11.65;;
38123;SDS011;23934;47.998;9.832;2023-03-01T11:07:07;18.75;;;7.63;;
38123;SDS011;23934;47.998;9.832;2023-03-01T11:09:33;28.52;;;10.13;;
38123;SDS011;23934;47.998;9.832;2023-03-01T11:12:11;18.13;;;6.38;;
38123;SDS011;23934;47.998;9.832;2023-03-01T11:14:39;33.95;;;9.68;;
38123;SDS011;23934;47.998;9.832;2023-03-01T11:19:40;22.88;;;6.20;;
38123;SDS011;23934;47.998;9.832;2023-03-01T11:22:13;28.27;;;10.18;;
38123;SDS011;23934;47.998;9.832;2023-03-01T11:24:43;21.52;;;7.70;;
38123;SDS011;23934;47.998;9.832;2023-03-01T11:27:32;23.42;;;7.47;;
38123;SDS011;23934;47.998;9.832;2023-03-01T11:30:02;32.00;;;7.80;;
38123;SDS011;23934;47.998;9.832;2023-03-01T11:34:56;26.60;;;10.27;;
38123;SDS011;23934;47.998;9.832;2023-03-01T11:37:29;19.35;;;5.55;;
38123;SDS011;23934;47.998;9.832;2023-03-01T11:39:58;18.55;;;5.65;;
38123;SDS011;23934;47.998;9.832;2023-03-01T11:45:11;24.92;;;8.68;;
38123;SDS011;23934;47.998;9.832;2023-03-01T11:50:14;29.80;;;11.00;;
38123;SDS011;23934;47.998;9.832;2023-03-01T11:52:44;35.03;;;10.02;;
38123;SDS011;23934;47.998;9.832;2023-03-01T12:00:53;28.75;;;9.95;;
38123;SDS011;23934;47.998;9.832;2023-03-01T12:06:18;30.10;;;11.60;;
38123;SDS011;23934;47.998;9.832;2023-03-01T12:11:19;25.63;;;9.05;;
38123;SDS011;23934;47.998;9.832;2023-03-01T12:16:30;34.60;;;8.30;;
38123;SDS011;23934;47.998;9.832;2023-03-01T12:19:02;23.00;;;7.93;;
38123;SDS011;23934;47.998;9.832;2023-03-01T12:21:53;23.52;;;8.00;;
38123;SDS011;23934;47.998;9.832;2023-03-01T12:26:54;33.75;;;11.93;;
38123;SDS011;23934;47.998;9.832;2023-03-01T12:29:25;33.70;;;10.93;;
38123;SDS011;23934;47.998;9.832;2023-03-01T12:32:03;32.22;;;9.05;;
38123;SDS011;23934;47.998;9.832;2023-03-01T12:37:16;30.48;;;10.43;;
38123;SDS011;23934;47.998;9.832;2023-03-01T12:45:35;28.23;;;8.18;;
38123;SDS011;23934;47.998;9.832;2023-03-01T12:48:10;17.98;;;5.68;;
38123;SDS011;23934;47.998;9.832;2023-03-01T12:50:41;28.58;;;9.55;;
38123;SDS011;23934;47.998;9.832;2023-03-01T12:56:06;29.88;;;9.35;;
38123;SDS011;23934;47.998;9.832;2023-03-01T12:58:35;39.22;;;7.47;;
38123;SDS011;23934;47.998;9.832;2023-03-01T13:11:19;23.50;;;7.75;;
38123;SDS011;23934;47.998;9.832;2023-03-01T13:13:46;27.67;;;8.77;;
38123;SDS011;23934;47.998;9.832;2023-03-01T13:18:46;40.38;;;11.70;;
38123;SDS011;23934;47.998;9.832;2023-03-01T13:21:12;38.78;;;12.73;;
38123;SDS011;23934;47.998;9.832;2023-03-01T13:23:38;41.63;;;11.10;;
38123;SDS011;23934;47.998;9.832;2023-03-01T13:26:17;27.05;;;8.57;;
38123;SDS011;23934;47.998;9.832;2023-03-01T13:31:10;33.45;;;11.98;;
38123;SDS011;23934;47.998;9.832;2023-03-01T13:33:57;36.60;;;10.70;;
38123;SDS011;23934;47.998;9.832;2023-03-01T13:38:57;32.00;;;10.57;;
38123;SDS011;23934;47.998;9.832;2023-03-01T13:46:46;39.97;;;11.23;;
38123;SDS011;23934;47.998;9.832;2023-03-01T13:49:14;30.73;;;10.63;;
38123;SDS011;23934;47.998;9.832;2023-03-01T13:51:41;37.80;;;12.27;;
38123;SDS011;23934;47.998;9.832;2023-03-01T13:54:11;33.80;;;9.52;;
38123;SDS011;23934;47.998;9.832;2023-03-01T13:56:37;35.22;;;9.20;;
38123;SDS011;23934;47.998;9.832;2023-03-01T13:59:24;40.47;;;13.70;;
38123;SDS011;23934;47.998;9.832;2023-03-01T14:01:55;37.47;;;13.23;;
38123;SDS011;23934;47.998;9.832;2023-03-01T14:04:22;40.90;;;12.32;;
38123;SDS011;23934;47.998;9.832;2023-03-01T14:06:49;44.65;;;14.70;;
38123;SDS011;23934;47.998;9.832;2023-03-01T14:09:16;38.47;;;13.40;;
38123;SDS011;23934;47.998;9.832;2023-03-01T14:12:06;42.60;;;11.77;;
38123;SDS011;23934;47.998;9.832;2023-03-01T14:14:43;42.08;;;14.23;;
38123;SDS011;23934;47.998;9.832;2023-03-01T14:19:43;45.55;;;12.70;;
38123;SDS011;23934;47.998;9.832;2023-03-01T14:22:18;20.50;;;8.68;;
38123;SDS011;23934;47.998;9.832;2023-03-01T14:24:46;33.05;;;12.52;;
38123;SDS011;23934;47.998;9.832;2023-03-01T14:27:14;45.88;;;14.50;;
38123;SDS011;23934;47.998;9.832;2023-03-01T14:29:40;37.38;;;10.38;;
38123;SDS011;23934;47.998;9.832;2023-03-01T14:34:42;35.97;;;13.80;;
38123;SDS011;23934;47.998;9.832;2023-03-01T14:37:16;37.55;;;13.93;;
38123;SDS011;23934;47.998;9.832;2023-03-01T14:39:43;39.15;;;12.40;;
38123;SDS011;23934;47.998;9.832;2023-03-01T14:42:09;45.25;;;13.95;;
38123;SDS011;23934;47.998;9.832;2023-03-01T14:44:36;42.70;;;13.18;;
38123;SDS011;23934;47.998;9.832;2023-03-01T14:47:02;42.50;;;14.63;;
38123;SDS011;23934;47.998;9.832;2023-03-01T14:49:30;30.52;;;12.05;;
38123;SDS011;23934;47.998;9.832;2023-03-01T14:52:00;37.55;;;11.60;;
38123;SDS011;23934;47.998;9.832;2023-03-01T14:54:28;25.57;;;11.70;;
38123;SDS011;23934;47.998;9.832;2023-03-01T14:56:58;39.25;;;13.18;;
38123;SDS011;23934;47.998;9.832;2023-03-01T14:59:24;46.60;;;14.52;;
38123;SDS011;23934;47.998;9.832;2023-03-01T15:01:51;39.25;;;13.73;;
38123;SDS011;23934;47.998;9.832;2023-03-01T15:04:18;41.30;;;12.73;;
38123;SDS011;23934;47.998;9.832;2023-03-01T15:06:45;37.42;;;12.52;;
38123;SDS011;23934;47.998;9.832;2023-03-01T15:09:13;49.00;;;14.63;;
38123;SDS011;23934;47.998;9.832;2023-03-01T15:11:40;41.95;;;13.60;;
38123;SDS011;23934;47.998;9.832;2023-03-01T15:16:54;44.35;;;14.70;;
38123;SDS011;23934;47.998;9.832;2023-03-01T15:19:20;38.85;;;12.65;;
38123;SDS011;23934;47.998;9.832;2023-03-01T15:21:48;43.88;;;13.57;;
38123;SDS011;23934;47.998;9.832;2023-03-01T15:24:20;45.15;;;14.73;;
38123;SDS011;23934;47.998;9.832;2023-03-01T15:26:52;47.67;;;15.35;;
38123;SDS011;23934;47.998;9.832;2023-03-01T15:29:21;52.33;;;14.93;;
38123;SDS011;23934;47.998;9.832;2023-03-01T15:32:01;46.15;;;15.38;;
38123;SDS011;23934;47.998;9.832;2023-03-01T15:34:36;42.05;;;15.13;;
38123;SDS011;23934;47.998;9.832;2023-03-01T15:37:03;49.83;;;15.68;;
38123;SDS011;23934;47.998;9.832;2023-03-01T15:39:35;46.08;;;15.05;;
38123;SDS011;23934;47.998;9.832;2023-03-01T15:42:11;47.45;;;16.25;;
38123;SDS011;23934;47.998;9.832;2023-03-01T15:44:39;43.05;;;14.85;;
38123;SDS011;23934;47.998;9.832;2023-03-01T15:47:28;41.95;;;15.25;;
38123;SDS011;23934;47.998;9.832;2023-03-01T15:49:53;40.67;;;15.13;;
38123;SDS011;23934;47.998;9.832;2023-03-01T15:54:53;41.03;;;14.50;;
38123;SDS011;23934;47.998;9.832;2023-03-01T15:57:20;46.13;;;15.60;;
38123;SDS011;23934;47.998;9.832;2023-03-01T15:59:46;43.45;;;15.32;;
38123;SDS011;23934;47.998;9.832;2023-03-01T16:02:12;49.78;;;16.85;;
38123;SDS011;23934;47.998;9.832;2023-03-01T16:04:38;44.17;;;14.88;;
38123;SDS011;23934;47.998;9.832;2023-03-01T16:07:05;41.58;;;13.63;;
38123;SDS011;23934;47.998;9.832;2023-03-01T16:09:31;46.08;;;14.95;;
38123;SDS011;23934;47.998;9.832;2023-03-01T16:11:57;56.95;;;15.25;;